Time;durP1;ratioP1;P1;durP2;ratioP2;P2;SDS_P1;SDS_P2;PMS_P1;PMS_P2;Temp;Humidity;BMP_temperature;BMP_pressure;BME280_temperature;BME280_humidity;BME280_pressure;Samples;Min_cycle;Max_cycle;Signal;HPM_P1;HPM_P2
2024/01/09 00:01:04;;;;;;;16.48;9.73;;;;;;;-2.60;71.69;98921.00;5240339;22;20555;-82
2024/01/09 00:03:07;;;;;;;13.40;8.70;;;;;;;-2.64;71.54;98921.88;5240313;22;20275;-82
2024/01/09 00:05:11;;;;;;;15.63;8.52;;;;;;;-2.65;71.47;98921.00;5213786;22;20207;-82
2024/01/09 00:07:14;;;;;;;13.02;7.75;;;;;;;-2.66;71.80;98921.00;5241309;22;20175;-82
2024/01/09 00:09:18;;;;;;;17.70;9.90;;;;;;;-2.68;71.95;98922.72;5213508;22;20196;-82
2024/01/09 00:11:21;;;;;;;14.98;8.50;;;;;;;-2.79;71.68;98914.28;5241182;22;20537;-82
2024/01/09 00:13:24;;;;;;;16.77;9.80;;;;;;;-2.82;71.84;98916.84;5240395;22;20250;-82
2024/01/09 00:15:27;;;;;;;13.60;8.52;;;;;;;-2.86;71.80;98915.13;5213582;22;20195;-82
2024/01/09 00:17:31;;;;;;;14.40;8.48;;;;;;;-2.79;71.43;98919.38;5241814;22;20175;-82
2024/01/09 00:19:33;;;;;;;17.00;9.70;;;;;;;-2.91;71.53;98916.03;5241200;22;20280;-82
2024/01/09 00:21:36;;;;;;;15.45;8.95;;;;;;;-2.90;71.49;98912.59;5213442;22;20187;-82
2024/01/09 00:23:40;;;;;;;17.23;10.27;;;;;;;-2.91;71.67;98918.56;5238289;22;20172;-82
2024/01/09 00:25:44;;;;;;;16.95;8.93;;;;;;;-2.97;72.04;98913.50;5187790;22;20257;-82
2024/01/09 00:27:47;;;;;;;18.60;9.65;;;;;;;-2.86;71.88;98915.13;5241215;22;20179;-82
2024/01/09 00:29:50;;;;;;;14.35;8.50;;;;;;;-2.78;72.23;98919.38;5214349;22;20191;-82
2024/01/09 00:31:53;;;;;;;17.15;9.60;;;;;;;-2.73;71.78;98925.28;5213096;22;20548;-82
2024/01/09 00:33:57;;;;;;;18.10;9.32;;;;;;;-2.67;71.62;98934.66;5212444;22;20670;-82
2024/01/09 00:36:00;;;;;;;19.02;10.00;;;;;;;-2.70;71.03;98924.44;5239075;22;20391;-82
2024/01/09 00:38:03;;;;;;;21.25;10.38;;;;;;;-2.65;70.98;98935.47;5213210;22;20176;-82
2024/01/09 00:40:08;;;;;;;17.50;10.48;;;;;;;-2.65;70.56;98918.44;5214003;22;20255;-82
2024/01/09 00:42:12;;;;;;;20.30;9.63;;;;;;;-2.60;70.93;98921.00;5212164;22;20940;-82
2024/01/09 00:44:15;;;;;;;17.48;9.02;;;;;;;-2.64;71.12;98926.97;5213319;22;20172;-82
2024/01/09 00:46:18;;;;;;;15.65;9.35;;;;;;;-2.63;71.15;98915.91;5239629;22;20172;-82
2024/01/09 00:48:21;;;;;;;13.73;8.50;;;;;;;-2.68;70.80;98910.81;5239366;22;20172;-82
2024/01/09 00:50:25;;;;;;;16.60;8.93;;;;;;;-2.61;70.87;98927.81;5241107;22;20187;-82
2024/01/09 00:52:28;;;;;;;16.45;10.32;;;;;;;-2.53;70.71;98926.06;5240560;22;20163;-83
2024/01/09 00:54:31;;;;;;;16.35;8.85;;;;;;;-2.60;70.43;98923.53;5239756;22;20229;-82
2024/01/09 00:56:34;;;;;;;17.05;9.30;;;;;;;-2.58;70.53;98921.84;5187468;22;20173;-82
2024/01/09 00:58:39;;;;;;;20.23;9.73;;;;;;;-2.54;70.01;98926.06;5186454;22;20656;-82
2024/01/09 01:00:42;;;;;;;16.17;9.10;;;;;;;-2.56;70.48;98915.88;5213144;22;20537;-82
2024/01/09 01:02:45;;;;;;;16.08;8.88;;;;;;;-2.58;70.00;98914.19;5212494;22;20193;-82
2024/01/09 01:04:48;;;;;;;17.40;9.25;;;;;;;-2.64;69.97;98924.44;5241015;22;20553;-82
2024/01/09 01:06:51;;;;;;;15.15;8.82;;;;;;;-2.63;69.94;98923.56;5240846;22;20578;-82
2024/01/09 01:08:54;;;;;;;17.75;9.52;;;;;;;-2.58;69.78;98921.84;5212000;22;20512;-82
2024/01/09 01:10:57;;;;;;;18.23;9.77;;;;;;;-2.72;70.28;98918.47;5213101;22;20271;-82
2024/01/09 01:12:59;;;;;;;20.88;9.35;;;;;;;-2.84;70.16;98916.00;5187392;22;20179;-83
2024/01/09 01:15:04;;;;;;;14.90;9.50;;;;;;;-2.83;70.45;98922.78;5212791;22;20214;-82
2024/01/09 01:17:07;;;;;;;17.95;9.55;;;;;;;-2.79;70.60;98920.22;5213542;22;20180;-82
2024/01/09 01:19:10;;;;;;;18.50;9.25;;;;;;;-2.83;70.38;98915.13;5213383;22;20226;-82
2024/01/09 01:21:15;;;;;;;13.05;7.68;;;;;;;-2.87;70.26;98922.78;5213410;22;20192;-82
2024/01/09 01:23:18;;;;;;;13.45;7.85;;;;;;;-2.91;70.47;98921.97;5239948;22;20171;-83
2024/01/09 01:25:21;;;;;;;14.60;9.30;;;;;;;-2.99;70.71;98918.59;5212811;22;20176;-82
2024/01/09 01:27:25;;;;;;;16.08;9.57;;;;;;;-2.97;70.44;98921.97;5240824;22;20661;-82
2024/01/09 01:29:28;;;;;;;14.15;8.20;;;;;;;-2.95;70.62;98924.53;5213089;22;20215;-82
2024/01/09 01:31:35;;;;;;;17.15;10.65;;;;;;;-2.92;70.48;98927.06;5212442;22;20180;-83
2024/01/09 01:33:37;;;;;;;17.98;9.90;;;;;;;-2.91;70.57;98926.22;5186838;22;20240;-82
2024/01/09 01:35:41;;;;;;;17.42;9.25;;;;;;;-2.89;70.64;98930.44;5240106;22;20624;-82
2024/01/09 01:37:45;;;;;;;19.15;8.95;;;;;;;-2.89;70.54;98935.53;5213134;22;20536;-82
2024/01/09 01:39:49;;;;;;;15.73;9.02;;;;;;;-2.90;70.70;98933.88;5239100;22;20164;-82
2024/01/09 01:41:52;;;;;;;16.90;8.88;;;;;;;-2.81;70.31;98938.94;5238749;22;20228;-82
2024/01/09 01:43:55;;;;;;;14.75;8.20;;;;;;;-2.78;70.31;98934.69;5238638;22;20202;-83
2024/01/09 01:45:58;;;;;;;19.33;9.70;;;;;;;-2.86;69.81;98937.25;5212958;22;20176;-82
2024/01/09 01:48:03;;;;;;;19.58;9.85;;;;;;;-2.88;70.42;98932.16;5238320;22;20254;-82
2024/01/09 01:50:08;;;;;;;13.15;8.50;;;;;;;-2.87;69.89;98938.09;5240120;22;20222;-82
2024/01/09 01:52:11;;;;;;;16.50;9.10;;;;;;;-2.81;69.52;98941.50;5238999;22;20250;-82
2024/01/09 01:54:15;;;;;;;13.73;8.15;;;;;;;-2.85;70.23;98934.69;5238656;22;20182;-82
2024/01/09 01:56:18;;;;;;;20.20;9.35;;;;;;;-2.82;70.11;98929.59;5211295;22;20183;-82
2024/01/09 01:58:21;;;;;;;20.10;9.40;;;;;;;-2.81;69.66;98938.94;5238865;22;20258;-82
2024/01/09 02:00:26;;;;;;;17.70;10.23;;;;;;;-2.79;69.76;98934.69;5240228;22;20175;-82
2024/01/09 02:02:30;;;;;;;15.93;9.18;;;;;;;-2.81;69.58;98933.84;5211858;22;20168;-82
2024/01/09 02:04:36;;;;;;;18.00;10.35;;;;;;;-2.89;69.27;98939.81;5185961;22;20176;-82
2024/01/09 02:06:40;;;;;;;16.25;9.00;;;;;;;-2.91;69.54;98928.78;5241416;22;20171;-82
2024/01/09 02:08:44;;;;;;;17.77;9.45;;;;;;;-2.88;69.63;98937.25;5187395;22;20242;-82
2024/01/09 02:10:48;;;;;;;13.45;8.50;;;;;;;-2.81;69.17;98937.25;5210693;22;20219;-83
2024/01/09 02:12:53;;;;;;;13.60;8.45;;;;;;;-2.88;69.92;98933.88;5211733;22;20172;-82
2024/01/09 02:14:55;;;;;;;18.13;9.55;;;;;;;-2.97;69.99;98924.53;5212735;22;20263;-82
2024/01/09 02:16:59;;;;;;;16.30;9.15;;;;;;;-3.00;69.45;98932.19;5211931;22;20210;-82
2024/01/09 02:19:01;;;;;;;14.70;7.95;;;;;;;-2.90;69.64;98927.91;5240497;22;20215;-82
2024/01/09 02:21:06;;;;;;;15.38;8.40;;;;;;;-2.95;69.15;98930.47;5187121;22;20712;-82
2024/01/09 02:23:09;;;;;;;16.92;9.68;;;;;;;-3.06;69.52;98927.09;5238995;22;20179;-82
2024/01/09 02:25:12;;;;;;;15.85;9.25;;;;;;;-3.01;69.82;98927.91;5236703;22;20524;-82
2024/01/09 02:27:21;;;;;;;15.30;8.82;;;;;;;-2.95;70.08;98927.91;5240334;22;20186;-82
2024/01/09 02:29:25;;;;;;;16.08;8.68;;;;;;;-2.98;69.68;98927.91;5239161;22;20795;-82
2024/01/09 02:31:29;;;;;;;19.35;9.63;;;;;;;-2.95;70.08;98930.47;5239119;22;20200;-82
2024/01/09 02:33:33;;;;;;;14.68;8.25;;;;;;;-2.88;69.96;98932.16;5239225;22;20922;-82
2024/01/09 02:35:36;;;;;;;16.33;8.85;;;;;;;-2.94;69.58;98926.22;5212393;22;20168;-82
2024/01/09 02:37:39;;;;;;;15.82;8.55;;;;;;;-2.88;70.13;98937.25;5238799;22;20629;-82
2024/01/09 02:39:41;;;;;;;17.92;7.97;;;;;;;-2.82;69.47;98927.03;5239984;22;20179;-82
2024/01/09 02:41:45;;;;;;;14.85;9.45;;;;;;;-2.76;69.40;98924.47;5239355;22;20206;-82
2024/01/09 02:43:47;;;;;;;15.13;8.90;;;;;;;-2.76;68.82;98927.03;5186877;22;20187;-82
2024/01/09 02:45:51;;;;;;;14.90;8.38;;;;;;;-2.79;68.83;98929.59;5211624;22;20631;-82
2024/01/09 02:47:55;;;;;;;12.23;7.95;;;;;;;-2.81;68.97;98924.47;5212511;22;20176;-82
2024/01/09 02:49:58;;;;;;;15.90;8.75;;;;;;;-2.79;69.13;98916.81;5212739;22;20176;-82
2024/01/09 02:52:01;;;;;;;17.00;9.18;;;;;;;-2.77;69.09;98921.06;5211760;22;20176;-82
2024/01/09 02:54:04;;;;;;;16.63;9.00;;;;;;;-2.79;69.15;98927.03;5185921;22;20637;-82
2024/01/09 02:56:07;;;;;;;18.05;9.40;;;;;;;-2.85;69.09;98916.84;5211587;22;20612;-83
2024/01/09 02:58:10;;;;;;;15.48;8.43;;;;;;;-2.75;69.05;98928.72;5213057;22;20608;-82
2024/01/09 03:00:14;;;;;;;14.95;8.55;;;;;;;-2.79;68.75;98916.81;5214849;22;20484;-82
2024/01/09 03:02:17;;;;;;;15.88;9.32;;;;;;;-2.77;68.44;98918.53;5239865;22;20182;-82
2024/01/09 03:04:22;;;;;;;18.23;8.98;;;;;;;-2.76;68.89;98914.25;5216015;22;20205;-82
2024/01/09 03:06:25;;;;;;;14.68;8.55;;;;;;;-2.81;68.98;98910.88;5215377;22;20226;-82
2024/01/09 03:08:28;;;;;;;16.90;8.52;;;;;;;-2.83;68.53;98924.50;5240878;22;20175;-82
2024/01/09 03:10:37;;;;;;;14.02;8.77;;;;;;;-2.86;68.49;98915.13;5215152;22;20192;-82
2024/01/09 03:12:40;;;;;;;16.88;9.02;;;;;;;-2.91;68.71;98914.31;5241116;22;20245;-82
2024/01/09 03:14:43;;;;;;;16.58;8.98;;;;;;;-2.94;69.05;98916.88;5215154;22;20199;-82
2024/01/09 03:16:47;;;;;;;13.18;7.40;;;;;;;-2.90;69.05;98917.69;5239981;22;20179;-83
2024/01/09 03:18:51;;;;;;;18.13;9.13;;;;;;;-2.98;68.56;98912.63;5241046;22;20183;-82
2024/01/09 03:20:55;;;;;;;17.95;9.88;;;;;;;-3.08;68.85;98905.84;5215723;22;20191;-82
2024/01/09 03:22:58;;;;;;;16.10;8.82;;;;;;;-2.97;69.22;98905.84;5242115;22;20191;-82
2024/01/09 03:25:01;;;;;;;16.98;8.60;;;;;;;-3.01;68.86;98916.88;5242592;22;20237;-82
2024/01/09 03:27:05;;;;;;;14.98;8.88;;;;;;;-2.91;69.24;98906.66;5241104;22;20204;-82
2024/01/09 03:29:08;;;;;;;16.77;8.98;;;;;;;-2.91;68.95;98906.66;5243275;22;20167;-82
2024/01/09 03:31:19;;;;;;;12.60;7.93;;;;;;;-2.94;68.29;98900.72;5214550;22;20203;-82
2024/01/09 03:33:22;;;;;;;17.08;9.20;;;;;;;-2.89;69.17;98902.38;5215050;22;20172;-82
2024/01/09 03:35:26;;;;;;;17.23;8.65;;;;;;;-2.84;68.81;98900.69;5215506;22;20278;-82
2024/01/09 03:37:30;;;;;;;15.40;8.40;;;;;;;-2.78;68.79;98908.31;5213685;22;20203;-82
2024/01/09 03:39:33;;;;;;;16.33;8.73;;;;;;;-2.73;68.49;98920.19;5242396;22;20182;-82
2024/01/09 03:41:36;;;;;;;13.10;7.80;;;;;;;-2.68;68.77;98909.97;5241831;22;20179;-82
2024/01/09 03:43:39;;;;;;;11.10;7.40;;;;;;;-2.69;68.01;98909.13;5242111;22;20490;-82
2024/01/09 03:45:42;;;;;;;15.10;8.30;;;;;;;-2.64;68.35;98911.66;5241653;22;20179;-82
2024/01/09 03:47:46;;;;;;;14.50;7.60;;;;;;;-2.58;68.21;98921.84;5189678;22;20172;-82
2024/01/09 03:49:49;;;;;;;16.25;8.00;;;;;;;-2.60;67.68;98913.34;5215184;22;20206;-82
2024/01/09 03:51:52;;;;;;;12.50;7.80;;;;;;;-2.68;67.40;98917.63;5242182;22;20195;-82
2024/01/09 03:53:56;;;;;;;14.93;7.93;;;;;;;-2.73;67.60;98912.53;5187754;22;20288;-82
2024/01/09 03:56:00;;;;;;;12.38;7.88;;;;;;;-2.80;67.32;98912.56;5188167;22;20487;-82
2024/01/09 03:58:03;;;;;;;15.77;8.63;;;;;;;-2.77;67.44;98910.00;5215994;22;20603;-82
2024/01/09 04:00:08;;;;;;;15.02;8.27;;;;;;;-2.73;68.08;98909.16;5213738;22;20180;-82
2024/01/09 04:02:11;;;;;;;12.98;7.68;;;;;;;-2.74;67.84;98907.44;5242657;22;20675;-82
2024/01/09 04:04:14;;;;;;;16.30;8.70;;;;;;;-2.69;68.15;98909.13;5215475;22;20278;-82
2024/01/09 04:06:17;;;;;;;16.17;9.10;;;;;;;-2.73;67.70;98906.59;5241208;22;20240;-82
2024/01/09 04:08:20;;;;;;;14.23;7.38;;;;;;;-2.73;67.88;98912.53;5215189;22;20176;-82
2024/01/09 04:10:25;;;;;;;16.80;7.78;;;;;;;-2.75;67.76;98910.88;5242846;22;20194;-82
2024/01/09 04:12:28;;;;;;;16.55;8.65;;;;;;;-2.74;67.95;98907.44;5213091;22;20242;-82
2024/01/09 04:14:31;;;;;;;12.75;7.53;;;;;;;-2.71;67.91;98910.81;5239418;22;20175;-82
2024/01/09 04:16:37;;;;;;;13.57;8.07;;;;;;;-2.80;67.84;98910.88;5240757;22;20788;-82
2024/01/09 04:18:40;;;;;;;15.88;8.50;;;;;;;-2.95;67.10;98899.03;5240833;22;20220;-82
2024/01/09 04:20:42;;;;;;;17.67;7.80;;;;;;;-2.98;68.17;98901.56;5213019;22;20226;-82
2024/01/09 04:22:46;;;;;;;12.60;7.63;;;;;;;-2.93;67.87;98910.06;5213120;22;20210;-82
2024/01/09 04:24:49;;;;;;;14.70;6.75;;;;;;;-2.97;67.61;98905.84;5212945;22;20251;-82
2024/01/09 04:26:53;;;;;;;13.02;7.72;;;;;;;-2.95;67.14;98907.50;5188921;22;20184;-82
2024/01/09 04:28:57;;;;;;;14.70;7.93;;;;;;;-2.91;67.59;98911.75;5187977;22;20630;-82
2024/01/09 04:31:00;;;;;;;15.77;8.48;;;;;;;-3.03;67.58;98908.41;5213039;22;20551;-83
2024/01/09 04:33:05;;;;;;;16.33;8.50;;;;;;;-3.07;68.02;98912.63;5240172;22;20172;-83
2024/01/09 04:35:08;;;;;;;13.95;7.32;;;;;;;-3.15;67.94;98911.81;5213440;22;20662;-82
2024/01/09 04:37:11;;;;;;;14.18;7.32;;;;;;;-3.14;68.40;98913.53;5240924;22;20175;-83
2024/01/09 04:39:14;;;;;;;17.35;8.52;;;;;;;-3.18;68.33;98916.06;5187568;22;20187;-82
2024/01/09 04:41:17;;;;;;;16.25;8.35;;;;;;;-3.15;68.24;98911.81;5214069;22;20199;-82
2024/01/09 04:43:22;;;;;;;15.43;8.95;;;;;;;-3.04;68.09;98920.28;5240570;22;20217;-82
2024/01/09 04:45:25;;;;;;;14.90;7.93;;;;;;;-3.06;68.04;98918.59;5213958;22;20206;-83
2024/01/09 04:47:28;;;;;;;16.23;8.32;;;;;;;-3.08;67.64;98912.63;5240827;22;20612;-83
2024/01/09 04:49:32;;;;;;;18.13;9.30;;;;;;;-3.07;67.48;98916.91;5239351;22;20178;-83
2024/01/09 04:51:37;;;;;;;16.10;8.23;;;;;;;-3.08;67.81;98912.63;5213040;22;20192;-83
2024/01/09 04:53:40;;;;;;;14.02;8.25;;;;;;;-3.06;68.10;98916.06;5212945;22;20187;-82
2024/01/09 04:55:43;;;;;;;19.13;8.00;;;;;;;-3.05;67.85;98913.50;5211124;22;20186;-83
2024/01/09 04:57:46;;;;;;;14.60;7.90;;;;;;;-3.11;67.34;98910.97;5240910;22;20203;-83
2024/01/09 04:59:50;;;;;;;15.88;8.93;;;;;;;-3.13;68.01;98915.22;5240038;22;20672;-83
2024/01/09 05:01:53;;;;;;;18.40;8.75;;;;;;;-3.21;67.77;98905.88;5239720;22;20839;-83
2024/01/09 05:03:56;;;;;;;14.73;7.70;;;;;;;-3.21;68.08;98911.81;5240318;22;20581;-83
2024/01/09 05:06:00;;;;;;;18.15;9.38;;;;;;;-3.18;67.74;98908.44;5212802;22;20608;-82
2024/01/09 05:08:03;;;;;;;16.80;8.27;;;;;;;-3.12;67.77;98919.44;5239155;22;20775;-83
2024/01/09 05:10:07;;;;;;;14.23;7.85;;;;;;;-3.12;68.07;98911.81;5213887;22;20199;-82
2024/01/09 05:12:10;;;;;;;17.48;9.05;;;;;;;-3.10;67.78;98911.81;5240335;22;20273;-83
2024/01/09 05:14:17;;;;;;;15.38;8.00;;;;;;;-3.08;67.63;98912.63;5239793;22;20350;-83
2024/01/09 05:16:20;;;;;;;16.45;8.50;;;;;;;-3.08;67.85;98908.41;5240085;22;20553;-82
2024/01/09 05:18:23;;;;;;;13.52;7.85;;;;;;;-3.12;67.62;98911.81;5241075;22;20627;-82
2024/01/09 05:20:27;;;;;;;17.70;8.63;;;;;;;-3.08;67.94;98910.97;5213289;22;20192;-82
2024/01/09 05:22:30;;;;;;;13.75;7.85;;;;;;;-3.10;67.45;98912.63;5238947;22;20178;-82
2024/01/09 05:24:33;;;;;;;14.30;7.93;;;;;;;-3.21;67.62;98900.78;5240169;22;20171;-82
2024/01/09 05:26:36;;;;;;;16.30;9.00;;;;;;;-3.16;67.87;98915.25;5212474;22;20176;-83
2024/01/09 05:28:39;;;;;;;15.90;8.27;;;;;;;-3.13;68.04;98909.25;5213428;22;20207;-82
2024/01/09 05:30:42;;;;;;;15.10;8.43;;;;;;;-3.06;67.98;98910.97;5213417;22;20192;-82
2024/01/09 05:32:47;;;;;;;17.52;9.07;;;;;;;-3.08;68.19;98921.16;5238181;22;20583;-83
2024/01/09 05:34:50;;;;;;;17.65;8.68;;;;;;;-3.10;67.53;98907.53;5240569;22;20250;-83
2024/01/09 05:36:53;;;;;;;16.35;8.18;;;;;;;-3.06;67.97;98909.25;5213002;22;20509;-82
2024/01/09 05:38:55;;;;;;;17.00;9.23;;;;;;;-3.00;68.04;98916.88;5188406;22;20208;-82
2024/01/09 05:40:59;;;;;;;14.45;7.38;;;;;;;-2.94;68.04;98913.47;5238323;22;20179;-82
2024/01/09 05:43:02;;;;;;;23.60;8.90;;;;;;;-2.82;67.83;98919.38;5212480;22;20198;-83
2024/01/09 05:45:06;;;;;;;18.27;9.10;;;;;;;-2.80;67.89;98923.63;5239835;22;20232;-83
2024/01/09 05:47:09;;;;;;;18.92;10.23;;;;;;;-2.90;67.25;98916.03;5213534;22;20251;-85
2024/01/09 05:49:14;;;;;;;14.50;8.50;;;;;;;-2.94;67.39;98910.94;5212666;22;20250;-84
2024/01/09 05:51:16;;;;;;;13.63;7.57;;;;;;;-2.91;67.19;98916.84;5238700;22;20176;-84
2024/01/09 05:53:19;;;;;;;17.00;8.13;;;;;;;-2.84;67.24;98915.13;5239805;22;20195;-84
2024/01/09 05:55:23;;;;;;;16.63;8.60;;;;;;;-2.84;67.23;98918.56;5238787;22;20245;-84
2024/01/09 05:57:26;;;;;;;13.45;7.35;;;;;;;-2.87;67.04;98920.25;5188002;22;20176;-84
2024/01/09 05:59:29;;;;;;;18.30;10.25;;;;;;;-2.92;67.35;98909.22;5212835;22;20612;-84
2024/01/09 06:01:32;;;;;;;13.63;8.10;;;;;;;-2.80;66.89;98915.13;5212304;22;20255;-84
2024/01/09 06:03:35;;;;;;;15.43;8.77;;;;;;;-2.78;67.11;98921.09;5238323;22;20738;-84
2024/01/09 06:05:40;;;;;;;18.92;8.05;;;;;;;-2.86;66.29;98916.84;5213422;22;20168;-84
2024/01/09 06:07:43;;;;;;;20.40;8.15;;;;;;;-2.82;67.03;98916.84;5240350;22;20176;-84
2024/01/09 06:09:46;;;;;;;19.65;9.30;;;;;;;-2.90;66.99;98918.56;5213445;22;20671;-84
2024/01/09 06:11:49;;;;;;;12.90;7.70;;;;;;;-2.85;67.00;98927.03;5239400;22;20514;-85
2024/01/09 06:13:53;;;;;;;18.95;8.98;;;;;;;-2.88;67.10;98921.94;5240392;22;20550;-84
2024/01/09 06:15:57;;;;;;;21.05;9.73;;;;;;;-2.91;67.04;98924.50;5237657;22;20176;-84
2024/01/09 06:18:00;;;;;;;15.88;8.20;;;;;;;-2.87;66.79;98928.75;5213799;22;20793;-84
2024/01/09 06:20:04;;;;;;;15.52;8.40;;;;;;;-2.88;66.90;98924.50;5213173;22;20168;-83
2024/01/09 06:22:08;;;;;;;14.10;7.70;;;;;;;-2.84;66.81;98921.09;5238465;22;20191;-82
2024/01/09 06:24:11;;;;;;;12.80;8.35;;;;;;;-2.83;67.21;98927.88;5239044;22;20244;-82
2024/01/09 06:26:14;;;;;;;18.45;9.48;;;;;;;-2.74;66.92;98935.50;5212652;22;20172;-82
2024/01/09 06:28:17;;;;;;;17.92;8.25;;;;;;;-2.78;66.89;98924.47;5213308;22;20641;-82
2024/01/09 06:30:21;;;;;;;19.90;9.60;;;;;;;-2.75;67.28;98934.66;5239690;22;20171;-82
2024/01/09 06:32:24;;;;;;;16.50;8.18;;;;;;;-2.73;66.32;98934.66;5240059;22;20230;-82
2024/01/09 06:34:27;;;;;;;15.45;9.32;;;;;;;-2.68;66.99;98940.59;5212706;22;20180;-82
2024/01/09 06:36:30;;;;;;;18.67;10.55;;;;;;;-2.70;66.56;98934.66;5213366;22;20226;-82
2024/01/09 06:38:36;;;;;;;18.13;8.75;;;;;;;-2.67;66.20;98932.09;5240272;22;20175;-82
2024/01/09 06:40:39;;;;;;;17.67;11.05;;;;;;;-2.64;66.61;98939.75;5212324;22;20172;-82
2024/01/09 06:42:42;;;;;;;15.73;8.20;;;;;;;-2.64;66.53;98934.63;5212881;22;20606;-82
2024/01/09 06:44:49;;;;;;;17.77;9.80;;;;;;;-2.63;67.09;98938.88;5213334;22;20176;-82
2024/01/09 06:46:52;;;;;;;21.50;10.65;;;;;;;-2.64;66.55;98937.19;5187928;22;20215;-83
2024/01/09 06:48:55;;;;;;;13.75;7.97;;;;;;;-2.64;67.07;98945.69;5238748;22;20175;-82
2024/01/09 06:50:58;;;;;;;16.90;9.45;;;;;;;-2.66;66.62;98939.75;5212649;22;20850;-82
2024/01/09 06:53:02;;;;;;;15.20;8.80;;;;;;;-2.64;67.33;98940.56;5239069;22;20214;-82
2024/01/09 06:55:07;;;;;;;14.85;7.97;;;;;;;-2.65;66.75;98943.13;5237843;22;20182;-82
2024/01/09 06:57:10;;;;;;;16.73;9.52;;;;;;;-2.64;67.76;98945.69;5240482;22;20174;-82
2024/01/09 06:59:13;;;;;;;13.73;8.77;;;;;;;-2.64;67.08;98942.28;5186545;22;20267;-83
2024/01/09 07:01:16;;;;;;;15.55;8.73;;;;;;;-2.61;67.66;98945.66;5213055;22;20290;-83
2024/01/09 07:03:22;;;;;;;17.30;8.23;;;;;;;-2.63;67.02;98951.63;5240641;22;20199;-82
2024/01/09 07:05:25;;;;;;;16.73;8.40;;;;;;;-2.60;67.08;98954.16;5239363;22;20178;-82
2024/01/09 07:07:29;;;;;;;20.90;9.82;;;;;;;-2.57;67.54;98955.03;5213869;22;20169;-82
2024/01/09 07:09:43;;;;;;;24.05;14.13;;;;;;;-2.57;66.67;98949.91;5213751;22;20171;-82
2024/01/09 07:11:48;;;;;;;21.27;10.50;;;;;;;-2.53;67.12;98956.69;5187428;22;20180;-82
2024/01/09 07:13:51;;;;;;;19.73;10.13;;;;;;;-2.47;67.01;98966.88;5240903;22;20202;-82
2024/01/09 07:15:54;;;;;;;16.98;9.18;;;;;;;-2.55;66.35;98966.06;5187373;22;20267;-82
2024/01/09 07:17:57;;;;;;;18.83;9.52;;;;;;;-2.52;66.00;98970.31;5240091;22;20190;-82
2024/01/09 07:20:00;;;;;;;15.45;8.93;;;;;;;-2.57;65.96;98960.13;5212551;22;20172;-82
2024/01/09 07:22:04;;;;;;;16.02;8.40;;;;;;;-2.62;66.05;98959.28;5239497;22;20638;-82
2024/01/09 07:24:08;;;;;;;14.70;8.15;;;;;;;-2.59;65.80;98960.97;5212758;22;20587;-82
2024/01/09 07:26:11;;;;;;;15.38;8.80;;;;;;;-2.55;66.20;98962.69;5212307;22;20682;-83
2024/01/09 07:28:15;;;;;;;15.30;8.43;;;;;;;-2.51;65.88;98966.91;5210652;22;20164;-82
2024/01/09 07:30:19;;;;;;;17.63;9.80;;;;;;;-2.48;65.57;98967.75;5237445;22;20171;-83
2024/01/09 07:32:22;;;;;;;16.45;8.80;;;;;;;-2.44;65.34;98966.88;5235780;22;20185;-84
2024/01/09 07:34:26;;;;;;;16.77;10.52;;;;;;;-2.48;65.41;98969.44;5210468;22;20291;-84
2024/01/09 07:36:28;;;;;;;13.40;8.13;;;;;;;-2.50;65.30;98964.34;5211891;22;20180;-84
2024/01/09 07:38:31;;;;;;;17.83;9.57;;;;;;;-2.46;65.53;98970.31;5238200;22;20176;-83
2024/01/09 07:40:33;;;;;;;17.17;8.25;;;;;;;-2.41;65.82;98974.50;5238668;22;20175;-83
2024/01/09 07:42:39;;;;;;;17.58;9.32;;;;;;;-2.41;65.79;98966.84;5238414;22;20174;-83
2024/01/09 07:44:56;;;;;;;18.05;8.95;;;;;;;-2.46;65.18;98967.75;5211713;22;20180;-83
2024/01/09 07:46:59;;;;;;;13.38;7.95;;;;;;;-2.42;65.51;98972.84;5239721;22;20180;-83
2024/01/09 07:49:03;;;;;;;15.35;8.43;;;;;;;-2.38;65.43;98971.94;5214664;22;20172;-83
2024/01/09 07:51:06;;;;;;;14.43;8.27;;;;;;;-2.41;64.59;98971.13;5214244;22;20177;-83
2024/01/09 07:53:10;;;;;;;14.75;8.60;;;;;;;-2.39;64.75;98967.72;5241253;22;20176;-83
2024/01/09 07:55:13;;;;;;;17.05;9.23;;;;;;;-2.34;64.35;98979.59;5214792;22;20195;-84
2024/01/09 07:57:17;;;;;;;17.92;8.60;;;;;;;-2.17;64.24;98982.91;5213837;22;20172;-83
2024/01/09 07:59:23;;;;;;;14.48;7.90;;;;;;;-2.16;63.98;98979.50;5242409;22;20178;-84
2024/01/09 08:01:30;;;;;;;15.48;8.27;;;;;;;-2.00;64.26;98986.25;5240932;22;20587;-83
2024/01/09 08:03:33;;;;;;;17.45;9.52;;;;;;;-1.79;64.13;98991.22;5242143;22;20178;-84
2024/01/09 08:05:36;;;;;;;16.63;9.13;;;;;;;-1.69;63.73;99000.56;5214774;22;20172;-84
2024/01/09 08:07:38;;;;;;;17.85;8.63;;;;;;;-1.57;63.58;99003.03;5214619;22;20258;-84
2024/01/09 08:09:41;;;;;;;15.60;8.85;;;;;;;-1.47;63.33;99005.50;5214603;22;20172;-84
2024/01/09 08:11:44;;;;;;;15.98;9.82;;;;;;;-1.37;62.75;99002.00;5189013;22;20169;-84
2024/01/09 08:13:48;;;;;;;17.10;9.10;;;;;;;-1.28;62.37;99002.81;5214018;22;20227;-83
2024/01/09 08:15:51;;;;;;;15.13;8.75;;;;;;;-1.24;62.85;98999.34;5241724;22;20176;-84
2024/01/09 08:17:57;;;;;;;16.98;9.05;;;;;;;-1.14;62.89;99008.66;5214843;22;20179;-83
2024/01/09 08:20:00;;;;;;;18.38;8.55;;;;;;;-0.99;62.44;99007.66;5215472;22;20199;-84
2024/01/09 08:22:04;;;;;;;17.67;9.43;;;;;;;-1.12;61.70;99006.09;5212117;22;20599;-83
2024/01/09 08:24:07;;;;;;;15.43;8.50;;;;;;;-1.15;61.73;98999.28;5188157;22;20228;-83
2024/01/09 08:26:11;;;;;;;16.85;9.07;;;;;;;-1.02;62.31;98998.34;5239042;22;20623;-83
2024/01/09 08:28:13;;;;;;;16.73;9.18;;;;;;;-0.94;62.21;99006.78;5240436;22;20171;-83
2024/01/09 08:30:16;;;;;;;16.70;8.98;;;;;;;-0.85;62.00;98999.88;5213282;22;20181;-84
2024/01/09 08:32:21;;;;;;;16.30;8.38;;;;;;;-0.75;61.91;99003.19;5213469;22;20180;-84
2024/01/09 08:34:26;;;;;;;16.45;8.20;;;;;;;-0.69;61.35;99005.69;5242027;22;20191;-84
2024/01/09 08:36:29;;;;;;;20.08;10.35;;;;;;;-0.74;60.87;99004.88;5213815;22;20204;-83
2024/01/09 08:38:33;;;;;;;14.73;7.90;;;;;;;-0.86;60.61;99000.75;5214207;22;20199;-83
2024/01/09 08:40:36;;;;;;;15.40;9.13;;;;;;;-0.78;61.44;99003.25;5212847;22;20173;-84
2024/01/09 08:42:42;;;;;;;24.45;9.40;;;;;;;-0.65;61.42;99007.34;5239817;22;20160;-83
2024/01/09 08:44:45;;;;;;;15.00;8.52;;;;;;;-0.52;61.35;99014.91;5213846;22;20547;-84
2024/01/09 08:46:48;;;;;;;15.20;8.93;;;;;;;-0.65;60.15;99020.16;5214419;22;20187;-84
2024/01/09 08:48:51;;;;;;;17.50;9.80;;;;;;;-0.74;60.17;99010.84;5186087;22;20513;-83
2024/01/09 08:50:57;;;;;;;16.45;9.00;;;;;;;-0.72;60.57;99013.38;5241411;22;20207;-84
2024/01/09 08:53:00;;;;;;;15.95;8.50;;;;;;;-0.64;60.64;99003.94;5213803;22;20172;-84
2024/01/09 08:55:04;;;;;;;20.65;10.55;;;;;;;-0.60;60.65;99006.47;5212574;22;20196;-83
2024/01/09 08:57:07;;;;;;;16.63;9.40;;;;;;;-0.58;60.98;99007.28;5241415;22;20251;-84
2024/01/09 08:59:11;;;;;;;17.63;9.35;;;;;;;-0.56;60.10;99017.50;5214329;22;20183;-83
2024/01/09 09:01:14;;;;;;;13.73;8.88;;;;;;;-0.43;60.66;99019.94;5214043;22;20198;-83
2024/01/09 09:03:17;;;;;;;16.02;9.38;;;;;;;-0.52;59.71;99017.47;5239004;22;20236;-84
2024/01/09 09:05:20;;;;;;;17.83;9.52;;;;;;;-0.57;60.26;99011.53;5214064;22;20888;-83
2024/01/09 09:07:25;;;;;;;16.92;9.02;;;;;;;-0.56;60.23;99007.25;5213497;22;20172;-83
2024/01/09 09:09:29;;;;;;;15.07;8.57;;;;;;;-0.55;60.10;99008.97;5213526;22;20571;-83
2024/01/09 09:11:33;;;;;;;18.80;9.52;;;;;;;-0.42;60.47;99012.22;5211636;22;20267;-82
2024/01/09 09:13:36;;;;;;;20.38;9.50;;;;;;;-0.31;60.29;99007.00;5239808;22;20178;-83
2024/01/09 09:15:39;;;;;;;17.52;9.73;;;;;;;-0.25;60.75;99014.59;5240240;22;20681;-82
2024/01/09 09:17:42;;;;;;;16.75;9.80;;;;;;;-0.24;59.69;99016.28;5240982;22;20622;-83
2024/01/09 09:19:45;;;;;;;16.63;9.20;;;;;;;-0.14;59.15;99023.84;5239843;22;20171;-82
2024/01/09 09:21:48;;;;;;;16.58;9.20;;;;;;;-0.14;59.11;99018.72;5239763;22;20207;-82
2024/01/09 09:23:53;;;;;;;15.30;10.15;;;;;;;-0.25;59.54;99015.44;5240410;22;20183;-82
2024/01/09 09:25:56;;;;;;;24.17;13.68;;;;;;;-0.16;59.21;99004.25;5238509;22;20615;-82
2024/01/09 09:28:00;;;;;;;17.65;8.80;;;;;;;-0.05;59.67;99007.53;5240948;22;20200;-83
2024/01/09 09:30:04;;;;;;;18.95;10.02;;;;;;;-0.01;58.73;99016.00;5238888;22;20175;-82
2024/01/09 09:32:07;;;;;;;17.05;9.93;;;;;;;0.00;59.52;99012.56;5239171;22;20258;-82
2024/01/09 09:34:11;;;;;;;20.40;9.75;;;;;;;0.12;59.86;99016.69;5240704;22;20167;-82